EmailTwitter


Surface observations / United Kingdom / EGHI (03865)

Regions: Quebec | Canada | USA | Europe | France | UK | Elsewhere
Station
Display
Info & Location for EGHI (03865) | Help decoding METAR

Weather Conditions observed on 2019/01/22 at 15:20 UTC at SOUTHAMPTON WX C, UK (EGHI)

Sky conditions: partly cloudy.

Obstruction(s) to Vision: light rain.

Temperature: 4.0 Celsius.

Dewpoint: 2.0 Celsius.

Relative Humidity: 87%

Winds: Variable at 6 km/h or 3 knots.

Mean Sea level Pressure: 100.00 kilopascals.

Horizontal visibility: 6.21 statute miles or 9.94 kilometers.

Height of the Ceiling: 1158 metres ( 3800 feet ).

Coded METAR:

EGHI 221520Z VRB03KT 9999 -RA FEW025 BKN038 04/02 Q1000=